Aviation Digital Data Service (ADDS)

Output produced by METARs form (1709 UTC 29 May 2017)
found at http://www.aviationweather.gov/adds/metars/
 
MNBL 291450Z 2918/3018 00000KT 9999 BKN016 
     FM292000 11004KT 7000 VCRA SCT018 
     BECMG 3012/3017 06008KT
       
MNMG 291450Z 2918/3018 16008KT 9000 HZ FEW021 SCT300 
     BECMG 2918/2923 06004KT 7000 VCRA SCT018 SCT060 
     BECMG 3012/3017 06006KT 9999 FEW018
       
MNPC 291450Z 2918/3018 07010KT 8000 HZ BKN016 
     BECMG 2922/3004 06008KT SH SCT020 
     BECMG 3012/3017 07006KT 9999